createdAt,value
2023-05-19T00:01:15.327Z,100392.53
2023-05-19T00:03:53.369Z,100397.41
2023-05-19T00:06:24.247Z,100398.91
2023-05-19T00:08:57.416Z,100392.78
2023-05-19T00:11:25.978Z,100392.06
2023-05-19T00:13:54.933Z,100392.00
2023-05-19T00:16:26.471Z,100384.88
2023-05-19T00:18:54.018Z,100385.06
2023-05-19T00:21:21.507Z,100388.09
2023-05-19T00:23:49.098Z,100384.88
2023-05-19T00:26:16.360Z,100384.31
2023-05-19T00:28:43.838Z,100391.25
2023-05-19T00:31:11.199Z,100381.66
2023-05-19T00:33:38.511Z,100386.47
2023-05-19T00:36:06.281Z,100394.19
2023-05-19T00:38:36.438Z,100390.91
2023-05-19T00:41:05.690Z,100405.31
2023-05-19T00:43:33.263Z,100392.44
2023-05-19T00:46:00.703Z,100390.25
2023-05-19T00:48:28.330Z,100386.03
2023-05-19T00:51:03.727Z,100383.88
2023-05-19T00:53:32.669Z,100389.03
2023-05-19T00:56:05.949Z,100396.00
2023-05-19T00:58:33.646Z,100399.59
2023-05-19T01:01:05.323Z,100390.09
2023-05-19T01:03:36.309Z,100383.50
2023-05-19T01:06:07.946Z,100390.41
2023-05-19T01:08:42.297Z,100393.44
2023-05-19T01:11:15.426Z,100395.19
2023-05-19T01:13:47.448Z,100393.72
2023-05-19T01:16:56.510Z,100394.31
2023-05-19T01:19:40.883Z,100389.91
2023-05-19T01:22:32.297Z,100389.97
2023-05-19T01:25:41.089Z,100390.53
2023-05-19T01:28:22.736Z,100396.19
2023-05-19T01:30:55.401Z,100393.28
2023-05-19T01:33:28.597Z,100397.66
2023-05-19T01:35:58.297Z,100400.78
2023-05-19T01:38:33.015Z,100402.72
2023-05-19T01:41:06.106Z,100392.78
2023-05-19T01:43:37.158Z,100390.88
2023-05-19T01:46:08.256Z,100386.75
2023-05-19T01:48:35.845Z,100390.19
2023-05-19T01:51:03.211Z,100396.94
2023-05-19T01:53:37.615Z,100391.22
2023-05-19T01:56:06.145Z,100393.50
2023-05-19T01:58:48.417Z,100394.91
2023-05-19T02:01:30.611Z,100393.88
2023-05-19T02:04:16.899Z,100392.28
2023-05-19T02:07:13.079Z,100395.97
2023-05-19T02:09:58.279Z,100393.44
2023-05-19T02:12:34.316Z,100399.19
2023-05-19T02:15:15.691Z,100402.09
2023-05-19T02:17:46.586Z,100394.97
2023-05-19T02:20:18.220Z,100403.84
2023-05-19T02:22:52.463Z,100411.66
2023-05-19T02:25:23.107Z,100414.53
2023-05-19T02:27:53.247Z,100405.38
2023-05-19T02:30:24.547Z,100413.19
2023-05-19T02:32:55.264Z,100409.63
2023-05-19T02:35:26.153Z,100410.16
2023-05-19T02:37:53.793Z,100423.88
2023-05-19T02:40:25.239Z,100425.28
2023-05-19T02:42:55.259Z,100418.84
2023-05-19T02:45:25.483Z,100429.63
2023-05-19T02:48:02.314Z,100422.06
2023-05-19T02:50:30.558Z,100441.47
2023-05-19T02:53:01.210Z,100431.22
2023-05-19T02:55:32.199Z,100430.56
2023-05-19T02:58:02.811Z,100436.09
2023-05-19T03:00:38.999Z,100436.50
2023-05-19T03:03:12.510Z,100446.28
2023-05-19T03:05:43.393Z,100445.19
2023-05-19T03:08:14.241Z,100440.97
2023-05-19T03:10:41.484Z,100446.91
2023-05-19T03:13:11.531Z,100440.97
2023-05-19T03:15:39.179Z,100451.09
2023-05-19T03:18:09.605Z,100441.34
2023-05-19T03:20:42.750Z,100450.56
2023-05-19T03:23:13.464Z,100446.44
2023-05-19T03:25:47.000Z,100454.63
2023-05-19T03:28:14.289Z,100451.22
2023-05-19T03:30:42.393Z,100453.19
2023-05-19T03:33:14.452Z,100451.25
2023-05-19T03:35:45.870Z,100456.50
2023-05-19T03:38:19.274Z,100449.56
2023-05-19T03:40:55.381Z,100456.63
2023-05-19T03:43:26.176Z,100461.34
2023-05-19T03:45:53.526Z,100460.16
2023-05-19T03:48:24.194Z,100461.53
2023-05-19T03:50:55.128Z,100459.03
2023-05-19T03:53:25.990Z,100455.66
2023-05-19T03:55:53.922Z,100458.63
2023-05-19T03:58:24.559Z,100458.31
2023-05-19T04:00:55.330Z,100452.75
2023-05-19T04:03:23.761Z,100455.25
2023-05-19T04:05:54.158Z,100454.56
2023-05-19T04:08:28.193Z,100451.06
2023-05-19T04:10:56.196Z,100464.09
2023-05-19T04:13:24.001Z,100461.47
2023-05-19T04:15:52.377Z,100453.19
2023-05-19T04:18:20.273Z,100454.66
2023-05-19T04:20:48.054Z,100465.06
2023-05-19T04:23:15.339Z,100458.50
2023-05-19T04:25:43.117Z,100457.66
2023-05-19T04:28:10.281Z,100463.31
2023-05-19T04:30:37.633Z,100458.47
2023-05-19T04:33:05.574Z,100457.91
2023-05-19T04:35:33.164Z,100459.75
2023-05-19T04:38:00.445Z,100446.63
2023-05-19T04:40:27.983Z,100454.13
2023-05-19T04:42:55.237Z,100461.31
2023-05-19T04:45:22.975Z,100458.25
2023-05-19T04:47:50.842Z,100463.44
2023-05-19T04:50:18.458Z,100463.28
2023-05-19T04:52:45.793Z,100471.28
2023-05-19T04:55:13.507Z,100479.09
2023-05-19T04:57:41.010Z,100482.38
2023-05-19T05:00:09.285Z,100482.59
2023-05-19T05:02:37.025Z,100479.03
2023-05-19T05:05:05.691Z,100489.03
2023-05-19T05:07:38.835Z,100486.66
2023-05-19T05:10:07.288Z,100491.72
2023-05-19T05:12:43.698Z,100490.22
2023-05-19T05:15:11.627Z,100499.34
2023-05-19T05:17:39.299Z,100508.19
2023-05-19T05:20:07.296Z,100506.09
2023-05-19T05:22:35.009Z,100511.38
2023-05-19T05:25:03.299Z,100509.09
2023-05-19T05:27:31.187Z,100508.84
2023-05-19T05:29:59.281Z,100512.22
2023-05-19T05:32:26.840Z,100512.16
2023-05-19T05:34:54.273Z,100509.56
2023-05-19T05:37:21.601Z,100508.75
2023-05-19T05:39:49.016Z,100514.16
2023-05-19T05:42:16.341Z,100519.88
2023-05-19T05:44:43.660Z,100515.63
2023-05-19T05:47:11.437Z,100525.00
2023-05-19T05:49:39.256Z,100533.13
2023-05-19T05:52:08.366Z,100524.47
2023-05-19T05:54:35.894Z,100527.00
2023-05-19T05:57:03.530Z,100527.44
2023-05-19T05:59:31.149Z,100532.94
2023-05-19T06:01:58.691Z,100532.13
2023-05-19T06:04:26.051Z,100533.59
2023-05-19T06:06:53.295Z,100534.28
2023-05-19T06:09:20.633Z,100533.03
2023-05-19T06:11:47.919Z,100537.00
2023-05-19T06:14:15.114Z,100538.00
2023-05-19T06:16:42.353Z,100531.34
2023-05-19T06:19:10.204Z,100532.00
2023-05-19T06:21:37.519Z,100539.94
2023-05-19T06:24:05.014Z,100538.81
2023-05-19T06:26:33.113Z,100538.34
2023-05-19T06:29:00.686Z,100551.69
2023-05-19T06:31:28.808Z,100554.22
2023-05-19T06:33:56.287Z,100556.16
2023-05-19T06:36:23.970Z,100559.25
2023-05-19T06:38:51.466Z,100555.34
2023-05-19T06:41:18.926Z,100554.94
2023-05-19T06:43:46.323Z,100565.19
2023-05-19T06:46:13.834Z,100558.47
2023-05-19T06:48:41.434Z,100563.44
2023-05-19T06:51:08.863Z,100563.78
2023-05-19T06:53:36.223Z,100562.91
2023-05-19T06:56:04.672Z,100559.72
2023-05-19T06:58:32.183Z,100558.78
2023-05-19T07:01:00.009Z,100552.34
2023-05-19T07:03:27.690Z,100556.78
2023-05-19T07:05:55.526Z,100560.00
2023-05-19T07:08:22.960Z,100563.84
2023-05-19T07:10:51.249Z,100568.97
2023-05-19T07:13:18.667Z,100572.03
2023-05-19T07:15:46.095Z,100565.63
2023-05-19T07:18:13.846Z,100561.31
2023-05-19T07:20:41.464Z,100565.63
2023-05-19T07:23:08.904Z,100561.31
2023-05-19T07:25:36.277Z,100568.31
2023-05-19T07:28:04.080Z,100566.50
2023-05-19T07:30:31.983Z,100571.94
2023-05-19T07:32:59.677Z,100569.00
2023-05-19T07:35:27.197Z,100570.94
2023-05-19T07:37:54.625Z,100571.28
2023-05-19T07:40:22.086Z,100574.78
2023-05-19T07:42:50.223Z,100570.06
2023-05-19T07:45:17.943Z,100568.81
2023-05-19T07:47:45.684Z,100569.03
2023-05-19T07:50:13.185Z,100558.44
2023-05-19T07:52:40.706Z,100556.00
2023-05-19T07:55:08.329Z,100564.81
2023-05-19T07:57:35.710Z,100559.28
2023-05-19T08:00:04.565Z,100562.63
2023-05-19T08:02:32.008Z,100561.47
2023-05-19T08:04:59.684Z,100556.00
2023-05-19T08:07:27.311Z,100563.31
2023-05-19T08:09:55.338Z,100556.38
2023-05-19T08:12:22.798Z,100559.16
2023-05-19T08:14:50.246Z,100564.44
2023-05-19T08:17:17.866Z,100561.84
2023-05-19T08:19:45.261Z,100557.59
2023-05-19T08:22:12.638Z,100554.03
2023-05-19T08:24:40.250Z,100562.88
2023-05-19T08:27:07.794Z,100551.88
2023-05-19T08:29:35.205Z,100552.56
2023-05-19T08:32:02.613Z,100551.69
2023-05-19T08:34:30.153Z,100556.16
2023-05-19T08:36:57.555Z,100543.34
2023-05-19T08:39:25.527Z,100547.47
2023-05-19T08:41:56.333Z,100560.09
2023-05-19T08:44:23.754Z,100547.56
2023-05-19T08:46:54.361Z,100554.78
2023-05-19T08:49:27.129Z,100559.72
2023-05-19T08:52:02.545Z,100550.38
2023-05-19T08:54:37.763Z,100552.41
2023-05-19T08:57:06.217Z,100554.69
2023-05-19T08:59:34.540Z,100547.00
2023-05-19T09:02:03.938Z,100555.41
2023-05-19T09:04:32.110Z,100545.97
2023-05-19T09:07:00.222Z,100551.72
2023-05-19T09:09:27.646Z,100551.66
2023-05-19T09:11:55.022Z,100547.75
2023-05-19T09:14:23.066Z,100558.31
2023-05-19T09:16:50.852Z,100556.75
2023-05-19T09:19:18.607Z,100562.44
2023-05-19T09:21:46.087Z,100556.53
2023-05-19T09:24:13.676Z,100554.50
2023-05-19T09:26:42.854Z,100562.22
2023-05-19T09:29:15.244Z,100552.81
2023-05-19T09:31:53.638Z,100554.03
2023-05-19T09:34:22.139Z,100556.09
2023-05-19T09:36:49.871Z,100554.13
2023-05-19T09:39:19.166Z,100543.69
2023-05-19T09:41:51.670Z,100547.53
2023-05-19T09:44:28.458Z,100549.28
2023-05-19T09:46:56.646Z,100552.16
2023-05-19T09:49:27.350Z,100549.31
2023-05-19T09:51:55.466Z,100553.34
2023-05-19T09:54:24.245Z,100548.09
2023-05-19T09:57:02.266Z,100545.34
2023-05-19T09:59:32.893Z,100540.59
2023-05-19T10:02:02.168Z,100536.72
2023-05-19T10:04:30.709Z,100537.69
2023-05-19T10:06:59.114Z,100534.88
2023-05-19T10:09:29.245Z,100544.03
2023-05-19T10:11:58.783Z,100531.34
2023-05-19T10:14:29.910Z,100535.03
2023-05-19T10:16:58.877Z,100531.41
2023-05-19T10:19:28.309Z,100532.50
2023-05-19T10:21:56.175Z,100519.16
2023-05-19T10:24:23.905Z,100521.97
2023-05-19T10:26:56.718Z,100518.84
2023-05-19T10:29:28.786Z,100516.91
2023-05-19T10:31:59.489Z,100513.44
2023-05-19T10:34:55.226Z,100513.53
2023-05-19T10:37:41.869Z,100516.59
2023-05-19T10:40:27.532Z,100509.06
2023-05-19T10:43:25.631Z,100506.41
2023-05-19T10:45:54.634Z,100489.47
2023-05-19T10:48:22.270Z,100489.84
2023-05-19T10:50:54.388Z,100487.91
2023-05-19T10:53:21.873Z,100478.47
2023-05-19T10:55:52.875Z,100482.97
2023-05-19T10:58:40.172Z,100473.09
2023-05-19T11:01:15.814Z,100480.09
2023-05-19T11:03:51.492Z,100484.59
2023-05-19T11:06:19.800Z,100480.28
2023-05-19T11:08:52.154Z,100487.97
2023-05-19T11:11:19.853Z,100475.22
2023-05-19T11:13:48.581Z,100469.19
2023-05-19T11:16:19.169Z,100468.09
2023-05-19T11:18:49.959Z,100465.53
2023-05-19T11:21:19.773Z,100468.31
2023-05-19T11:23:47.467Z,100466.94
2023-05-19T11:26:14.937Z,100468.09
2023-05-19T11:28:42.959Z,100469.47
2023-05-19T11:31:11.035Z,100467.50
2023-05-19T11:33:39.837Z,100466.41
2023-05-19T11:36:08.280Z,100469.06
2023-05-19T11:38:35.695Z,100464.75
2023-05-19T11:41:03.837Z,100463.84
2023-05-19T11:43:31.372Z,100468.69
2023-05-19T11:45:59.579Z,100470.88
2023-05-19T11:48:27.055Z,100477.84
2023-05-19T11:50:54.588Z,100470.88
2023-05-19T11:53:23.156Z,100466.88
2023-05-19T11:55:50.918Z,100465.50
2023-05-19T11:58:25.733Z,100477.00
2023-05-19T12:00:53.173Z,100481.38
2023-05-19T12:03:23.823Z,100466.50
2023-05-19T12:05:51.957Z,100467.47
2023-05-19T12:08:19.932Z,100460.88
2023-05-19T12:10:50.323Z,100462.09
2023-05-19T12:13:17.853Z,100462.22
2023-05-19T12:15:45.405Z,100465.41
2023-05-19T12:18:12.865Z,100464.28
2023-05-19T12:20:40.542Z,100463.03
2023-05-19T12:23:08.048Z,100470.41
2023-05-19T12:25:35.682Z,100486.00
2023-05-19T12:28:03.531Z,100469.34
2023-05-19T12:30:32.230Z,100475.06
2023-05-19T12:33:01.687Z,100475.84
2023-05-19T12:35:37.657Z,100488.91
2023-05-19T12:38:06.869Z,100487.56
2023-05-19T12:40:35.981Z,100478.16
2023-05-19T12:43:04.195Z,100469.81
2023-05-19T12:45:37.804Z,100465.16
2023-05-19T12:48:06.274Z,100487.03
2023-05-19T12:50:34.833Z,100481.81
2023-05-19T12:53:02.603Z,100485.47
2023-05-19T12:55:30.408Z,100486.72
2023-05-19T12:57:58.030Z,100486.13
2023-05-19T13:00:32.863Z,100491.09
2023-05-19T13:03:07.785Z,100498.53
2023-05-19T13:05:50.869Z,100509.16
2023-05-19T13:08:20.735Z,100522.34
2023-05-19T13:10:48.443Z,100527.34
2023-05-19T13:13:16.439Z,100549.78
2023-05-19T13:15:45.644Z,100560.16
2023-05-19T13:18:14.876Z,100549.28
2023-05-19T13:20:44.663Z,100554.03
2023-05-19T13:23:13.453Z,100553.91
2023-05-19T13:25:41.316Z,100567.50
2023-05-19T13:28:08.989Z,100556.69
2023-05-19T13:30:38.105Z,100561.34
2023-05-19T13:33:05.963Z,100555.34
2023-05-19T13:35:33.562Z,100559.19
2023-05-19T13:38:01.482Z,100554.25
2023-05-19T13:40:28.788Z,100555.34
2023-05-19T13:42:55.944Z,100572.53
2023-05-19T13:45:23.134Z,100571.81
2023-05-19T13:47:50.429Z,100588.81
2023-05-19T13:50:17.808Z,100596.03
2023-05-19T13:53:03.027Z,100600.13
2023-05-19T13:55:48.363Z,100592.53
2023-05-19T13:58:16.535Z,100589.16
2023-05-19T14:00:44.032Z,100608.69
2023-05-19T14:03:11.504Z,100622.28
2023-05-19T14:05:38.964Z,100621.00
2023-05-19T14:08:06.176Z,100621.91
2023-05-19T14:10:33.652Z,100628.19
2023-05-19T14:15:33.429Z,100611.09
2023-05-19T14:18:00.766Z,100603.25
2023-05-19T14:20:29.434Z,100597.44
2023-05-19T14:22:56.862Z,100590.78
2023-05-19T14:25:24.872Z,100576.25
2023-05-19T14:27:52.256Z,100566.16
2023-05-19T14:30:19.475Z,100565.44
2023-05-19T14:32:47.088Z,100551.91
2023-05-19T14:35:14.404Z,100536.69
2023-05-19T14:37:41.618Z,100539.44
2023-05-19T14:40:09.222Z,100532.00
2023-05-19T14:42:36.359Z,100532.00
2023-05-19T14:45:03.744Z,100523.75
2023-05-19T14:47:31.096Z,100509.88
2023-05-19T14:49:58.714Z,100512.81
2023-05-19T14:52:25.993Z,100522.66
2023-05-19T14:54:53.133Z,100513.59
2023-05-19T14:57:20.279Z,100508.84
2023-05-19T14:59:47.574Z,100512.94
2023-05-19T15:02:14.693Z,100515.84
2023-05-19T15:04:41.870Z,100514.25
2023-05-19T15:07:10.632Z,100519.25
2023-05-19T15:09:38.634Z,100520.09
2023-05-19T15:12:06.620Z,100529.31
2023-05-19T15:14:34.170Z,100525.97
2023-05-19T15:17:01.443Z,100540.34
2023-05-19T15:19:29.488Z,100552.69
2023-05-19T15:21:56.872Z,100550.63
2023-05-19T15:24:24.054Z,100552.38
2023-05-19T15:26:51.354Z,100553.53
2023-05-19T15:29:19.335Z,100564.00
2023-05-19T15:31:49.481Z,100559.19
2023-05-19T15:34:17.220Z,100561.16
2023-05-19T15:36:44.645Z,100555.41
2023-05-19T15:39:11.876Z,100554.53
2023-05-19T15:41:39.076Z,100560.50
2023-05-19T15:44:06.644Z,100556.00
2023-05-19T15:46:34.059Z,100558.56
2023-05-19T15:49:01.270Z,100560.28
2023-05-19T15:51:28.528Z,100560.59
2023-05-19T15:53:55.704Z,100569.63
2023-05-19T15:56:22.909Z,100561.34
2023-05-19T15:58:50.253Z,100566.59
2023-05-19T16:01:18.267Z,100567.06
2023-05-19T16:03:46.054Z,100559.41
2023-05-19T16:06:13.818Z,100561.00
2023-05-19T16:08:40.962Z,100557.78
2023-05-19T16:11:08.157Z,100557.31
2023-05-19T16:13:35.403Z,100548.38
2023-05-19T16:16:03.464Z,100547.75
2023-05-19T16:18:30.704Z,100550.94
2023-05-19T16:20:58.125Z,100548.81
2023-05-19T16:23:25.527Z,100547.06
2023-05-19T16:25:53.174Z,100539.84
2023-05-19T16:28:22.389Z,100533.19
2023-05-19T16:30:50.364Z,100535.31
2023-05-19T16:33:17.650Z,100538.13
2023-05-19T16:35:44.845Z,100544.59
2023-05-19T16:38:12.086Z,100538.31
2023-05-19T16:40:39.425Z,100540.19
2023-05-19T16:43:06.690Z,100536.13
2023-05-19T16:45:33.881Z,100537.69
2023-05-19T16:48:01.152Z,100539.56
2023-05-19T16:50:28.452Z,100535.53
2023-05-19T16:52:55.759Z,100532.97
2023-05-19T16:55:22.964Z,100542.19
2023-05-19T16:57:50.170Z,100540.44
2023-05-19T17:00:17.547Z,100545.34
2023-05-19T17:02:44.956Z,100545.25
2023-05-19T17:05:12.410Z,100544.47
2023-05-19T17:07:39.699Z,100537.13
2023-05-19T17:10:07.288Z,100540.97
2023-05-19T17:12:34.416Z,100540.47
2023-05-19T17:15:01.654Z,100534.44
2023-05-19T17:17:29.008Z,100545.19
2023-05-19T17:19:56.188Z,100547.66
2023-05-19T17:22:23.477Z,100544.59
2023-05-19T17:24:50.591Z,100539.38
2023-05-19T17:27:17.775Z,100549.09
2023-05-19T17:29:45.107Z,100543.56
2023-05-19T17:32:12.373Z,100555.97
2023-05-19T17:34:39.530Z,100554.34
2023-05-19T17:37:06.843Z,100540.75
2023-05-19T17:39:34.102Z,100545.44
2023-05-19T17:42:01.752Z,100547.63
2023-05-19T17:44:28.932Z,100549.06
2023-05-19T17:46:56.274Z,100551.19
2023-05-19T17:49:23.602Z,100560.41
2023-05-19T17:51:51.162Z,100557.91
2023-05-19T17:54:18.682Z,100565.53
2023-05-19T17:56:46.054Z,100573.84
2023-05-19T17:59:13.516Z,100567.78
2023-05-19T18:01:41.032Z,100571.75
2023-05-19T18:04:08.871Z,100584.59
2023-05-19T18:06:43.225Z,100591.59
2023-05-19T18:09:11.166Z,100619.25
2023-05-19T18:11:38.475Z,100664.44
2023-05-19T18:14:05.714Z,100670.44
2023-05-19T18:16:33.095Z,100651.44
2023-05-19T18:19:03.607Z,100627.13
2023-05-19T18:21:31.053Z,100640.03
2023-05-19T18:23:58.207Z,100661.13
2023-05-19T18:26:28.995Z,100665.03
2023-05-19T18:28:56.635Z,100677.81
2023-05-19T18:31:23.866Z,100683.09
2023-05-19T18:33:51.271Z,100684.72
2023-05-19T18:36:22.077Z,100692.09
2023-05-19T18:38:50.134Z,100691.28
2023-05-19T18:41:18.565Z,100680.78
2023-05-19T18:43:46.359Z,100683.69
2023-05-19T18:46:13.805Z,100686.00
2023-05-19T18:48:41.478Z,100689.81
2023-05-19T18:51:11.982Z,100692.31
2023-05-19T18:53:39.389Z,100687.09
2023-05-19T18:56:07.104Z,100675.88
2023-05-19T18:58:34.490Z,100670.06
2023-05-19T19:01:02.041Z,100670.78
2023-05-19T19:03:29.654Z,100659.50
2023-05-19T19:05:58.689Z,100657.19
2023-05-19T19:08:26.079Z,100649.38
2023-05-19T19:10:53.786Z,100648.06
2023-05-19T19:13:21.372Z,100643.34
2023-05-19T19:15:48.965Z,100647.13
2023-05-19T19:18:19.540Z,100654.66
2023-05-19T19:20:49.584Z,100656.25
2023-05-19T19:23:17.150Z,100663.69
2023-05-19T19:25:45.008Z,100665.75
2023-05-19T19:28:12.422Z,100674.38
2023-05-19T19:30:41.857Z,100671.88
2023-05-19T19:33:09.293Z,100672.63
2023-05-19T19:35:36.725Z,100666.97
2023-05-19T19:38:04.069Z,100669.00
2023-05-19T19:40:31.284Z,100677.22
2023-05-19T19:42:58.742Z,100678.31
2023-05-19T19:45:29.468Z,100681.41
2023-05-19T19:47:56.767Z,100685.50
2023-05-19T19:50:24.366Z,100688.59
2023-05-19T19:52:51.567Z,100691.00
2023-05-19T19:55:19.167Z,100688.91
2023-05-19T19:57:46.510Z,100699.16
2023-05-19T20:00:15.918Z,100696.94
2023-05-19T20:02:55.807Z,100693.06
2023-05-19T20:05:30.579Z,100700.06
2023-05-19T20:07:57.916Z,100696.44
2023-05-19T20:10:25.201Z,100690.53
2023-05-19T20:12:52.520Z,100688.84
2023-05-19T20:15:19.725Z,100693.84
2023-05-19T20:17:47.034Z,100688.03
2023-05-19T20:20:14.588Z,100682.06
2023-05-19T20:22:41.848Z,100688.84
2023-05-19T20:25:09.287Z,100694.66
2023-05-19T20:27:36.462Z,100704.63
2023-05-19T20:30:04.170Z,100703.75
2023-05-19T20:32:31.499Z,100699.94
2023-05-19T20:34:58.655Z,100701.66
2023-05-19T20:37:25.923Z,100692.81
2023-05-19T20:39:53.181Z,100689.97
2023-05-19T20:42:20.352Z,100689.09
2023-05-19T20:44:47.557Z,100698.69
2023-05-19T20:47:15.064Z,100687.63
2023-05-19T20:49:42.385Z,100690.84
2023-05-19T20:52:09.518Z,100672.00
2023-05-19T20:54:36.762Z,100684.94
2023-05-19T20:57:04.162Z,100699.81
2023-05-19T20:59:31.411Z,100707.13
2023-05-19T21:01:58.693Z,100707.66
2023-05-19T21:04:25.841Z,100695.56
2023-05-19T21:06:53.192Z,100686.03
2023-05-19T21:09:20.506Z,100684.66
2023-05-19T21:11:47.687Z,100679.94
2023-05-19T21:14:14.887Z,100683.56
2023-05-19T21:16:42.107Z,100687.97
2023-05-19T21:19:09.363Z,100692.47
2023-05-19T21:21:36.625Z,100697.06
2023-05-19T21:24:03.938Z,100697.72
2023-05-19T21:26:31.179Z,100704.38
2023-05-19T21:28:58.609Z,100713.69
2023-05-19T21:31:25.955Z,100708.53
2023-05-19T21:33:53.416Z,100720.78
2023-05-19T21:36:20.681Z,100715.53
2023-05-19T21:38:47.839Z,100712.41
2023-05-19T21:41:15.357Z,100714.31
2023-05-19T21:43:42.539Z,100710.41
2023-05-19T21:46:10.449Z,100712.16
2023-05-19T21:48:37.705Z,100709.47
2023-05-19T21:51:05.026Z,100707.16
2023-05-19T21:53:32.604Z,100701.13
2023-05-19T21:56:00.235Z,100699.25
2023-05-19T21:58:27.396Z,100700.63
2023-05-19T22:00:54.705Z,100698.44
2023-05-19T22:03:22.345Z,100700.81
2023-05-19T22:05:53.293Z,100702.50
2023-05-19T22:08:21.228Z,100703.84
2023-05-19T22:10:50.143Z,100697.63
2023-05-19T22:13:17.712Z,100704.19
2023-05-19T22:15:45.215Z,100699.22
2023-05-19T22:18:13.139Z,100698.13
2023-05-19T22:20:40.735Z,100700.47
2023-05-19T22:23:07.865Z,100695.88
2023-05-19T22:25:35.147Z,100687.63
2023-05-19T22:28:02.836Z,100683.03
2023-05-19T22:30:30.437Z,100675.81
2023-05-19T22:32:57.724Z,100675.13
2023-05-19T22:35:25.117Z,100677.38
2023-05-19T22:37:52.315Z,100667.97
2023-05-19T22:40:19.592Z,100675.25
2023-05-19T22:42:46.692Z,100661.78
2023-05-19T22:45:14.046Z,100657.75
2023-05-19T22:47:41.269Z,100663.66
2023-05-19T22:50:08.921Z,100649.00
2023-05-19T22:52:36.422Z,100649.75
2023-05-19T22:55:04.281Z,100650.84
2023-05-19T22:57:31.776Z,100653.97
2023-05-19T22:59:58.960Z,100648.09
2023-05-19T23:02:26.859Z,100641.56
2023-05-19T23:04:54.098Z,100642.75
2023-05-19T23:07:21.395Z,100646.97
2023-05-19T23:09:48.717Z,100654.72
2023-05-19T23:12:16.855Z,100640.72
2023-05-19T23:14:44.103Z,100639.91
2023-05-19T23:17:11.451Z,100634.09
2023-05-19T23:19:38.663Z,100633.81
2023-05-19T23:22:05.846Z,100635.88
2023-05-19T23:24:33.943Z,100634.28
2023-05-19T23:27:01.913Z,100633.19
2023-05-19T23:29:32.587Z,100631.78
2023-05-19T23:32:00.133Z,100633.28
2023-05-19T23:34:30.773Z,100624.50
2023-05-19T23:36:58.050Z,100629.50
2023-05-19T23:39:25.459Z,100625.63
2023-05-19T23:41:53.170Z,100618.00
2023-05-19T23:44:20.444Z,100619.72
2023-05-19T23:46:50.578Z,100614.81
2023-05-19T23:49:17.980Z,100629.09
2023-05-19T23:51:45.274Z,100618.44
2023-05-19T23:54:12.489Z,100614.16
2023-05-19T23:56:39.768Z,100609.28
2023-05-19T23:59:07.001Z,100616.03
